PWSweather.com
Personal Weather Stations
Station Observations
GEELONGWX1
Bell Post Hill, GeelongAU

Bell Post HillGeelongAU

Lat: -38.101, Lon: 144.326

Elevation: 204

Station Type: Davis Vantage Pro2

http://www.geelongweather.com

High Low Average
Temperature 84.8°F29.3°C 53.4°F11.9°C 67.5°F19.7°C
Dew Point 60.3°F15.7°C 49.6°F9.8°C 55.8°F13.2°C
Winds 10.4 mph 16.7 kmh Calm Calm 4.0 mph SE6.4 kmh SE
Wind Gusts 18.4 mph29.6 kmh -- 6.0 mph9.7 kmh
Humidity 90% 36% 68%
Pressure 30.03 in1016.9 mb 29.92 in1013.2 mb -
Precipitation 0.00 in0.0 mm - -
Hour Temp Dew Point Humidity Winds Wind Gusts Pressure Precip Precip Rate Daily Precip Total
12:00 AM 58.9°F14.9°C 51.4°F10.8°C 76% 1.2 mph S1.9 kmh S 2.3 mph3.7 kmh 29.96 in1014.6 mb - 0.00 in0.0 mm 0.00 in0.0 mm
12:10 AM 58.6°F14.8°C 51.1°F10.6°C 76% 1.2 mph S1.9 kmh S 2.3 mph3.7 kmh 29.96 in1014.6 mb - 0.00 in0.0 mm 0.00 in0.0 mm
12:20 AM 58.3°F14.6°C 51.2°F10.7°C 77% 1.2 mph S1.9 kmh S 3.5 mph5.6 kmh 29.96 in1014.6 mb - 0.00 in0.0 mm 0.00 in0.0 mm
12:30 AM 58.1°F14.5°C 51.3°F10.7°C 78% 1.2 mph S1.9 kmh S 2.3 mph3.7 kmh 29.95 in1014.2 mb - 0.00 in0.0 mm 0.00 in0.0 mm
12:40 AM 57.8°F14.3°C 51.0°F10.6°C 78% 1.2 mph S1.9 kmh S 2.3 mph3.7 kmh 29.95 in1014.2 mb - 0.00 in0.0 mm 0.00 in0.0 mm
12:50 AM 57.6°F14.2°C 50.8°F10.4°C 78% 1.2 mph S1.9 kmh S 3.5 mph5.6 kmh 29.95 in1014.2 mb - 0.00 in0.0 mm 0.00 in0.0 mm
01:00 AM 57.3°F14.1°C 50.8°F10.4°C 79% 1.2 mph S1.9 kmh S 2.3 mph3.7 kmh 29.95 in1014.2 mb - 0.00 in0.0 mm 0.00 in0.0 mm
01:10 AM 57.1°F13.9°C 50.6°F10.3°C 79% 1.2 mph S1.9 kmh S 1.2 mph1.9 kmh 29.94 in1013.9 mb - 0.00 in0.0 mm 0.00 in0.0 mm
01:20 AM 56.9°F13.8°C 50.5°F10.3°C 79% 1.2 mph S1.9 kmh S 2.3 mph3.7 kmh 29.94 in1013.9 mb - 0.00 in0.0 mm 0.00 in0.0 mm
01:30 AM 56.7°F13.7°C 50.6°F10.3°C 80% 1.2 mph S1.9 kmh S 2.3 mph3.7 kmh 29.93 in1013.5 mb - 0.00 in0.0 mm 0.00 in0.0 mm
01:40 AM 56.5°F13.6°C 50.4°F10.2°C 80% 1.2 mph S1.9 kmh S 2.3 mph3.7 kmh 29.93 in1013.5 mb - 0.00 in0.0 mm 0.00 in0.0 mm
01:50 AM 56.3°F13.5°C 50.2°F10.1°C 80% 1.2 mph S1.9 kmh S 2.3 mph3.7 kmh 29.92 in1013.2 mb - 0.00 in0.0 mm 0.00 in0.0 mm
02:00 AM 56.2°F13.4°C 50.4°F10.2°C 81% 1.2 mph S1.9 kmh S 3.5 mph5.6 kmh 29.92 in1013.2 mb - 0.00 in0.0 mm 0.00 in0.0 mm
02:10 AM 56.1°F13.4°C 50.7°F10.4°C 82% 1.2 mph SSW1.9 kmh SSW 2.3 mph3.7 kmh 29.92 in1013.2 mb - 0.00 in0.0 mm 0.00 in0.0 mm
02:20 AM 56.0°F13.3°C 50.6°F10.3°C 82% 1.2 mph SSW1.9 kmh SSW 2.3 mph3.7 kmh 29.92 in1013.2 mb - 0.00 in0.0 mm 0.00 in0.0 mm
02:30 AM 55.9°F13.3°C 50.8°F10.4°C 83% 1.2 mph SSW1.9 kmh SSW 2.3 mph3.7 kmh 29.92 in1013.2 mb - 0.00 in0.0 mm 0.00 in0.0 mm
02:40 AM 55.7°F13.2°C 50.6°F10.3°C 83% 2.3 mph SSW3.7 kmh SSW 2.3 mph3.7 kmh 29.92 in1013.2 mb - 0.00 in0.0 mm 0.00 in0.0 mm
02:50 AM 55.5°F13.1°C 50.8°F10.4°C 84% 1.2 mph SW1.9 kmh SW 3.5 mph5.6 kmh 29.92 in1013.2 mb - 0.00 in0.0 mm 0.00 in0.0 mm
03:00 AM 55.3°F12.9°C 50.6°F10.3°C 84% 2.3 mph SW3.7 kmh SW 3.5 mph5.6 kmh 29.92 in1013.2 mb - 0.00 in0.0 mm 0.00 in0.0 mm
03:10 AM 55.2°F12.9°C 50.4°F10.2°C 84% 3.5 mph SW5.6 kmh SW 4.6 mph7.4 kmh 29.92 in1013.2 mb - 0.00 in0.0 mm 0.00 in0.0 mm
03:20 AM 54.9°F12.7°C 50.5°F10.3°C 85% 3.5 mph SW5.6 kmh SW 4.6 mph7.4 kmh 29.93 in1013.5 mb - 0.00 in0.0 mm 0.00 in0.0 mm
03:30 AM 54.7°F12.6°C 50.3°F10.2°C 85% 2.3 mph SW3.7 kmh SW 4.6 mph7.4 kmh 29.93 in1013.5 mb - 0.00 in0.0 mm 0.00 in0.0 mm
03:40 AM 54.5°F12.5°C 50.1°F10.1°C 85% 2.3 mph SSW3.7 kmh SSW 3.5 mph5.6 kmh 29.93 in1013.5 mb - 0.00 in0.0 mm 0.00 in0.0 mm
03:50 AM 54.4°F12.4°C 50.0°F10.0°C 85% 5.8 mph S9.3 kmh S 6.9 mph11.1 kmh 29.93 in1013.5 mb - 0.00 in0.0 mm 0.00 in0.0 mm
04:00 AM 54.2°F12.3°C 50.1°F10.1°C 86% 4.6 mph S7.4 kmh S 5.8 mph9.3 kmh 29.93 in1013.5 mb - 0.00 in0.0 mm 0.00 in0.0 mm
04:10 AM 54.1°F12.3°C 50.0°F10.0°C 86% 5.8 mph S9.3 kmh S 6.9 mph11.1 kmh 29.93 in1013.5 mb - 0.00 in0.0 mm 0.00 in0.0 mm
04:20 AM 54.0°F12.2°C 49.9°F9.9°C 86% 5.8 mph S9.3 kmh S 5.8 mph9.3 kmh 29.94 in1013.9 mb - 0.00 in0.0 mm 0.00 in0.0 mm
04:30 AM 53.8°F12.1°C 49.7°F9.8°C 86% 4.6 mph S7.4 kmh S 4.6 mph7.4 kmh 29.94 in1013.9 mb - 0.00 in0.0 mm 0.00 in0.0 mm
04:40 AM 53.6°F12.0°C 49.8°F9.9°C 87% 3.5 mph S5.6 kmh S 5.8 mph9.3 kmh 29.94 in1013.9 mb - 0.00 in0.0 mm 0.00 in0.0 mm
04:50 AM 53.5°F11.9°C 49.7°F9.8°C 87% 2.3 mph SSW3.7 kmh SSW 3.5 mph5.6 kmh 29.94 in1013.9 mb - 0.00 in0.0 mm 0.00 in0.0 mm
05:00 AM 53.4°F11.9°C 49.6°F9.8°C 87% 3.5 mph SSW5.6 kmh SSW 3.5 mph5.6 kmh 29.94 in1013.9 mb - 0.00 in0.0 mm 0.00 in0.0 mm
05:10 AM 53.4°F11.9°C 49.9°F9.9°C 88% 1.2 mph SW1.9 kmh SW 2.3 mph3.7 kmh 29.94 in1013.9 mb - 0.00 in0.0 mm 0.00 in0.0 mm
05:20 AM 53.4°F11.9°C 49.9°F9.9°C 88% 4.6 mph SSW7.4 kmh SSW 5.8 mph9.3 kmh 29.95 in1014.2 mb - 0.00 in0.0 mm 0.00 in0.0 mm
05:30 AM 53.5°F11.9°C 50.3°F10.2°C 89% 3.5 mph SSW5.6 kmh SSW 5.8 mph9.3 kmh 29.95 in1014.2 mb - 0.00 in0.0 mm 0.00 in0.0 mm
05:40 AM 53.7°F12.1°C 50.5°F10.3°C 89% 2.3 mph S3.7 kmh S 2.3 mph3.7 kmh 29.95 in1014.2 mb - 0.00 in0.0 mm 0.00 in0.0 mm
05:50 AM 54.1°F12.3°C 50.9°F10.5°C 89% 2.3 mph S3.7 kmh S 3.5 mph5.6 kmh 29.96 in1014.6 mb - 0.00 in0.0 mm 0.00 in0.0 mm
06:00 AM 54.6°F12.6°C 51.7°F10.9°C 90% 2.3 mph SSW3.7 kmh SSW 3.5 mph5.6 kmh 29.96 in1014.6 mb - 0.00 in0.0 mm 0.00 in0.0 mm
06:10 AM 55.4°F13.0°C 52.5°F11.4°C 90% 2.3 mph SW3.7 kmh SW 5.8 mph9.3 kmh 29.96 in1014.6 mb - 0.00 in0.0 mm 0.00 in0.0 mm
06:20 AM 56.1°F13.4°C 53.2°F11.8°C 90% 4.6 mph SW7.4 kmh SW 6.9 mph11.1 kmh 29.96 in1014.6 mb - 0.00 in0.0 mm 0.00 in0.0 mm
06:30 AM 56.8°F13.8°C 53.6°F12.0°C 89% 3.5 mph SSW5.6 kmh SSW 6.9 mph11.1 kmh 29.97 in1014.9 mb - 0.00 in0.0 mm 0.00 in0.0 mm
06:40 AM 57.8°F14.3°C 54.5°F12.5°C 89% 3.5 mph SSW5.6 kmh SSW 5.8 mph9.3 kmh 29.97 in1014.9 mb - 0.00 in0.0 mm 0.00 in0.0 mm
06:50 AM 58.8°F14.9°C 55.2°F12.9°C 88% 4.6 mph SSW7.4 kmh SSW 6.9 mph11.1 kmh 29.97 in1014.9 mb - 0.00 in0.0 mm 0.00 in0.0 mm
07:00 AM 59.8°F15.4°C 56.3°F13.5°C 88% 3.5 mph SSW5.6 kmh SSW 5.8 mph9.3 kmh 29.97 in1014.9 mb - 0.00 in0.0 mm 0.00 in0.0 mm
07:10 AM 61.0°F16.1°C 56.8°F13.8°C 86% 2.3 mph S3.7 kmh S 3.5 mph5.6 kmh 29.97 in1014.9 mb - 0.00 in0.0 mm 0.00 in0.0 mm
07:20 AM 62.4°F16.9°C 57.8°F14.3°C 85% 2.3 mph S3.7 kmh S 3.5 mph5.6 kmh 29.98 in1015.2 mb - 0.00 in0.0 mm 0.00 in0.0 mm
07:30 AM 63.8°F17.7°C 58.2°F14.6°C 82% 3.5 mph S5.6 kmh S 3.5 mph5.6 kmh 29.98 in1015.2 mb - 0.00 in0.0 mm 0.00 in0.0 mm
07:40 AM 65.2°F18.4°C 58.6°F14.8°C 79% 3.5 mph SSW5.6 kmh SSW 3.5 mph5.6 kmh 29.98 in1015.2 mb - 0.00 in0.0 mm 0.00 in0.0 mm
07:50 AM 66.8°F19.3°C 59.3°F15.2°C 77% 3.5 mph SSE5.6 kmh SSE 3.5 mph5.6 kmh 29.98 in1015.2 mb - 0.00 in0.0 mm 0.00 in0.0 mm
08:00 AM 68.3°F20.2°C 59.3°F15.2°C 73% 3.5 mph S5.6 kmh S 5.8 mph9.3 kmh 29.98 in1015.2 mb - 0.00 in0.0 mm 0.00 in0.0 mm
08:10 AM 69.7°F20.9°C 59.5°F15.3°C 70% 2.3 mph S3.7 kmh S 5.8 mph9.3 kmh 29.98 in1015.2 mb - 0.00 in0.0 mm 0.00 in0.0 mm
08:20 AM 71.0°F21.7°C 59.1°F15.1°C 66% 4.6 mph SW7.4 kmh SW 6.9 mph11.1 kmh 29.98 in1015.2 mb - 0.00 in0.0 mm 0.00 in0.0 mm
08:30 AM 72.1°F22.3°C 58.8°F14.9°C 63% Calm Calm 2.3 mph3.7 kmh 29.98 in1015.2 mb - 0.00 in0.0 mm 0.00 in0.0 mm
08:40 AM 73.4°F23.0°C 57.7°F14.3°C 58% 3.5 mph SE5.6 kmh SE 6.9 mph11.1 kmh 29.98 in1015.2 mb - 0.00 in0.0 mm 0.00 in0.0 mm
08:50 AM 74.8°F23.8°C 56.0°F13.3°C 52% 3.5 mph SW5.6 kmh SW 4.6 mph7.4 kmh 29.98 in1015.2 mb - 0.00 in0.0 mm 0.00 in0.0 mm
09:00 AM 76.0°F24.4°C 55.4°F13.0°C 49% Calm Calm -- 29.98 in1015.2 mb - 0.00 in0.0 mm 0.00 in0.0 mm
09:10 AM 76.9°F24.9°C 56.3°F13.5°C 49% 4.6 mph S7.4 kmh S 6.9 mph11.1 kmh 29.98 in1015.2 mb - 0.00 in0.0 mm 0.00 in0.0 mm
09:20 AM 78.0°F25.6°C 56.7°F13.7°C 48% 1.2 mph SW1.9 kmh SW 3.5 mph5.6 kmh 29.98 in1015.2 mb - 0.00 in0.0 mm 0.00 in0.0 mm
09:30 AM 79.0°F26.1°C 56.4°F13.6°C 46% 3.5 mph SSE5.6 kmh SSE 3.5 mph5.6 kmh 29.98 in1015.2 mb - 0.00 in0.0 mm 0.00 in0.0 mm
09:40 AM 80.0°F26.7°C 56.7°F13.7°C 45% Calm Calm -- 29.97 in1014.9 mb - 0.00 in0.0 mm 0.00 in0.0 mm
09:50 AM 80.8°F27.1°C 56.3°F13.5°C 43% Calm Calm -- 29.97 in1014.9 mb - 0.00 in0.0 mm 0.00 in0.0 mm
10:00 AM 81.8°F27.7°C 57.8°F14.3°C 44% Calm Calm -- 29.97 in1014.9 mb - 0.00 in0.0 mm 0.00 in0.0 mm
10:10 AM 82.3°F27.9°C 55.6°F13.1°C 40% Calm Calm -- 29.97 in1014.9 mb - 0.00 in0.0 mm 0.00 in0.0 mm
10:20 AM 82.8°F28.2°C 55.3°F12.9°C 39% Calm Calm -- 29.96 in1014.6 mb - 0.00 in0.0 mm 0.00 in0.0 mm
10:30 AM 83.3°F28.5°C 55.0°F12.8°C 38% Calm Calm -- 29.96 in1014.6 mb - 0.00 in0.0 mm 0.00 in0.0 mm
10:40 AM 83.8°F28.8°C 56.2°F13.4°C 39% Calm Calm -- 29.96 in1014.6 mb - 0.00 in0.0 mm 0.00 in0.0 mm
10:50 AM 84.3°F29.1°C 56.6°F13.7°C 39% Calm Calm -- 29.96 in1014.6 mb - 0.00 in0.0 mm 0.00 in0.0 mm
11:00 AM 84.8°F29.3°C 54.9°F12.7°C 36% Calm Calm -- 29.96 in1014.6 mb - 0.00 in0.0 mm 0.00 in0.0 mm
11:10 AM 84.0°F28.9°C 56.4°F13.6°C 39% 6.9 mph NE11.1 kmh NE 8.1 mph13.0 kmh 29.96 in1014.6 mb - 0.00 in0.0 mm 0.00 in0.0 mm
11:20 AM 83.3°F28.5°C 56.4°F13.6°C 40% 4.6 mph ENE7.4 kmh ENE 6.9 mph11.1 kmh 29.96 in1014.6 mb - 0.00 in0.0 mm 0.00 in0.0 mm
11:30 AM 82.5°F28.1°C 57.1°F13.9°C 42% 8.1 mph NE13.0 kmh NE 11.5 mph18.5 kmh 29.95 in1014.2 mb - 0.00 in0.0 mm 0.00 in0.0 mm
11:40 AM 82.0°F27.8°C 57.3°F14.1°C 43% 4.6 mph ENE7.4 kmh ENE 9.2 mph14.8 kmh 29.95 in1014.2 mb - 0.00 in0.0 mm 0.00 in0.0 mm
11:50 AM 81.6°F27.6°C 58.8°F14.9°C 46% 6.9 mph NNE11.1 kmh NNE 9.2 mph14.8 kmh 29.95 in1014.2 mb - 0.00 in0.0 mm 0.00 in0.0 mm
12:00 PM 81.3°F27.4°C 57.9°F14.4°C 45% 6.9 mph NE11.1 kmh NE 10.4 mph16.7 kmh 29.95 in1014.2 mb - 0.00 in0.0 mm 0.00 in0.0 mm
12:10 PM 80.7°F27.1°C 58.6°F14.8°C 47% 5.8 mph E9.3 kmh E 11.5 mph18.5 kmh 29.95 in1014.2 mb - 0.00 in0.0 mm 0.00 in0.0 mm
12:20 PM 80.5°F26.9°C 58.4°F14.7°C 47% 5.8 mph NE9.3 kmh NE 11.5 mph18.5 kmh 29.94 in1013.9 mb - 0.00 in0.0 mm 0.00 in0.0 mm
12:30 PM 80.5°F26.9°C 58.4°F14.7°C 47% 6.9 mph NE11.1 kmh NE 12.7 mph20.4 kmh 29.95 in1014.2 mb - 0.00 in0.0 mm 0.00 in0.0 mm
12:40 PM 80.2°F26.8°C 59.3°F15.2°C 49% 10.4 mph NE16.7 kmh NE 13.8 mph22.2 kmh 29.95 in1014.2 mb - 0.00 in0.0 mm 0.00 in0.0 mm
12:50 PM 79.7°F26.5°C 58.9°F14.9°C 49% 6.9 mph ENE11.1 kmh ENE 15.0 mph24.1 kmh 29.95 in1014.2 mb - 0.00 in0.0 mm 0.00 in0.0 mm
01:00 PM 79.4°F26.3°C 59.2°F15.1°C 50% 8.1 mph ENE13.0 kmh ENE 12.7 mph20.4 kmh 29.94 in1013.9 mb - 0.00 in0.0 mm 0.00 in0.0 mm
01:10 PM 79.0°F26.1°C 59.3°F15.2°C 51% 8.1 mph NE13.0 kmh NE 11.5 mph18.5 kmh 29.94 in1013.9 mb - 0.00 in0.0 mm 0.00 in0.0 mm
01:20 PM 78.9°F26.1°C 58.6°F14.8°C 50% 5.8 mph E9.3 kmh E 11.5 mph18.5 kmh 29.94 in1013.9 mb - 0.00 in0.0 mm 0.00 in0.0 mm
01:40 PM 78.5°F25.8°C 58.9°F14.9°C 51% 9.2 mph NE14.8 kmh NE 10.4 mph16.7 kmh 29.95 in1014.2 mb - 0.00 in0.0 mm 0.00 in0.0 mm
01:50 PM 78.7°F25.9°C 60.1°F15.6°C 53% 8.1 mph NE13.0 kmh NE 11.5 mph18.5 kmh 29.95 in1014.2 mb - 0.00 in0.0 mm 0.00 in0.0 mm
02:00 PM 79.2°F26.2°C 59.5°F15.3°C 51% 4.6 mph ENE7.4 kmh ENE 11.5 mph18.5 kmh 29.95 in1014.2 mb - 0.00 in0.0 mm 0.00 in0.0 mm
02:10 PM 79.1°F26.2°C 59.4°F15.2°C 51% 9.2 mph E14.8 kmh E 18.4 mph29.6 kmh 29.95 in1014.2 mb - 0.00 in0.0 mm 0.00 in0.0 mm
02:20 PM 78.4°F25.8°C 59.4°F15.2°C 52% 10.4 mph NE16.7 kmh NE 13.8 mph22.2 kmh 29.95 in1014.2 mb - 0.00 in0.0 mm 0.00 in0.0 mm
02:30 PM 78.3°F25.7°C 60.3°F15.7°C 54% 6.9 mph ENE11.1 kmh ENE 15.0 mph24.1 kmh 29.94 in1013.9 mb - 0.00 in0.0 mm 0.00 in0.0 mm
02:40 PM 77.8°F25.4°C 59.3°F15.2°C 53% 6.9 mph ENE11.1 kmh ENE 11.5 mph18.5 kmh 29.94 in1013.9 mb - 0.00 in0.0 mm 0.00 in0.0 mm
02:50 PM 77.4°F25.2°C 60.0°F15.6°C 55% 8.1 mph ENE13.0 kmh ENE 12.7 mph20.4 kmh 29.94 in1013.9 mb - 0.00 in0.0 mm 0.00 in0.0 mm
03:00 PM 77.3°F25.2°C 59.9°F15.5°C 55% 9.2 mph ENE14.8 kmh ENE 13.8 mph22.2 kmh 29.95 in1014.2 mb - 0.00 in0.0 mm 0.00 in0.0 mm
03:10 PM 76.8°F24.9°C 59.9°F15.5°C 56% 8.1 mph E13.0 kmh E 10.4 mph16.7 kmh 29.94 in1013.9 mb - 0.00 in0.0 mm 0.00 in0.0 mm
03:20 PM 76.3°F24.6°C 60.0°F15.6°C 57% 3.5 mph ESE5.6 kmh ESE 11.5 mph18.5 kmh 29.94 in1013.9 mb - 0.00 in0.0 mm 0.00 in0.0 mm
03:30 PM 76.1°F24.5°C 59.8°F15.4°C 57% 5.8 mph E9.3 kmh E 12.7 mph20.4 kmh 29.94 in1013.9 mb - 0.00 in0.0 mm 0.00 in0.0 mm
03:40 PM 75.9°F24.4°C 59.6°F15.3°C 57% 9.2 mph ENE14.8 kmh ENE 11.5 mph18.5 kmh 29.94 in1013.9 mb - 0.00 in0.0 mm 0.00 in0.0 mm
03:50 PM 75.7°F24.3°C 59.4°F15.2°C 57% 6.9 mph E11.1 kmh E 11.5 mph18.5 kmh 29.94 in1013.9 mb - 0.00 in0.0 mm 0.00 in0.0 mm
04:00 PM 75.3°F24.1°C 59.5°F15.3°C 58% 6.9 mph ENE11.1 kmh ENE 10.4 mph16.7 kmh 29.94 in1013.9 mb - 0.00 in0.0 mm 0.00 in0.0 mm
04:10 PM 74.9°F23.8°C 59.6°F15.3°C 59% 8.1 mph ENE13.0 kmh ENE 11.5 mph18.5 kmh 29.94 in1013.9 mb - 0.00 in0.0 mm 0.00 in0.0 mm
04:20 PM 74.8°F23.8°C 59.5°F15.3°C 59% 5.8 mph E9.3 kmh E 8.1 mph13.0 kmh 29.94 in1013.9 mb - 0.00 in0.0 mm 0.00 in0.0 mm
04:30 PM 74.6°F23.7°C 59.3°F15.2°C 59% 6.9 mph E11.1 kmh E 11.5 mph18.5 kmh 29.95 in1014.2 mb - 0.00 in0.0 mm 0.00 in0.0 mm
04:40 PM 74.0°F23.3°C 59.2°F15.1°C 60% 5.8 mph E9.3 kmh E 8.1 mph13.0 kmh 29.95 in1014.2 mb - 0.00 in0.0 mm 0.00 in0.0 mm
04:50 PM 73.4°F23.0°C 59.2°F15.1°C 61% 5.8 mph ENE9.3 kmh ENE 6.9 mph11.1 kmh 29.95 in1014.2 mb - 0.00 in0.0 mm 0.00 in0.0 mm
05:00 PM 73.1°F22.8°C 59.3°F15.2°C 62% 6.9 mph E11.1 kmh E 11.5 mph18.5 kmh 29.95 in1014.2 mb - 0.00 in0.0 mm 0.00 in0.0 mm
05:10 PM 72.8°F22.7°C 58.6°F14.8°C 61% 5.8 mph E9.3 kmh E 11.5 mph18.5 kmh 29.95 in1014.2 mb - 0.00 in0.0 mm 0.00 in0.0 mm
05:20 PM 72.5°F22.5°C 58.3°F14.6°C 61% 5.8 mph E9.3 kmh E 9.2 mph14.8 kmh 29.95 in1014.2 mb - 0.00 in0.0 mm 0.00 in0.0 mm
05:30 PM 72.1°F22.3°C 58.4°F14.7°C 62% 9.2 mph E14.8 kmh E 11.5 mph18.5 kmh 29.95 in1014.2 mb - 0.00 in0.0 mm 0.00 in0.0 mm
05:40 PM 71.8°F22.1°C 58.5°F14.7°C 63% 8.1 mph E13.0 kmh E 10.4 mph16.7 kmh 29.95 in1014.2 mb - 0.00 in0.0 mm 0.00 in0.0 mm
05:50 PM 71.4°F21.9°C 57.7°F14.3°C 62% 3.5 mph E5.6 kmh E 10.4 mph16.7 kmh 29.96 in1014.6 mb - 0.00 in0.0 mm 0.00 in0.0 mm
06:00 PM 71.1°F21.7°C 58.3°F14.6°C 64% 5.8 mph E9.3 kmh E 10.4 mph16.7 kmh 29.96 in1014.6 mb - 0.00 in0.0 mm 0.00 in0.0 mm
06:10 PM 70.8°F21.6°C 58.4°F14.7°C 65% 8.1 mph E13.0 kmh E 9.2 mph14.8 kmh 29.96 in1014.6 mb - 0.00 in0.0 mm 0.00 in0.0 mm
06:20 PM 70.4°F21.3°C 58.0°F14.4°C 65% 6.9 mph NE11.1 kmh NE 9.2 mph14.8 kmh 29.97 in1014.9 mb - 0.00 in0.0 mm 0.00 in0.0 mm
06:30 PM 69.9°F21.1°C 58.0°F14.4°C 66% 4.6 mph ENE7.4 kmh ENE 4.6 mph7.4 kmh 29.97 in1014.9 mb - 0.00 in0.0 mm 0.00 in0.0 mm
06:40 PM 69.4°F20.8°C 58.0°F14.4°C 67% 3.5 mph ENE5.6 kmh ENE 8.1 mph13.0 kmh 29.97 in1014.9 mb - 0.00 in0.0 mm 0.00 in0.0 mm
06:50 PM 69.0°F20.6°C 58.0°F14.4°C 68% 4.6 mph ESE7.4 kmh ESE 5.8 mph9.3 kmh 29.98 in1015.2 mb - 0.00 in0.0 mm 0.00 in0.0 mm
07:00 PM 68.6°F20.3°C 58.0°F14.4°C 69% 4.6 mph E7.4 kmh E 6.9 mph11.1 kmh 29.99 in1015.6 mb - 0.00 in0.0 mm 0.00 in0.0 mm
07:10 PM 68.2°F20.1°C 57.6°F14.2°C 69% 6.9 mph E11.1 kmh E 9.2 mph14.8 kmh 29.99 in1015.6 mb - 0.00 in0.0 mm 0.00 in0.0 mm
07:20 PM 67.8°F19.9°C 57.7°F14.3°C 70% 1.2 mph E1.9 kmh E -- 30.00 in1015.9 mb - 0.00 in0.0 mm 0.00 in0.0 mm
07:30 PM 67.4°F19.7°C 57.7°F14.3°C 71% Calm Calm -- 30.00 in1015.9 mb - 0.00 in0.0 mm 0.00 in0.0 mm
07:40 PM 67.0°F19.4°C 57.7°F14.3°C 72% 3.5 mph E5.6 kmh E 5.8 mph9.3 kmh 30.01 in1016.3 mb - 0.00 in0.0 mm 0.00 in0.0 mm
07:50 PM 66.6°F19.2°C 57.7°F14.3°C 73% 8.1 mph ENE13.0 kmh ENE 11.5 mph18.5 kmh 30.01 in1016.3 mb - 0.00 in0.0 mm 0.00 in0.0 mm
08:00 PM 66.2°F19.0°C 57.3°F14.1°C 73% 3.5 mph ENE5.6 kmh ENE 4.6 mph7.4 kmh 30.00 in1015.9 mb - 0.00 in0.0 mm 0.00 in0.0 mm
08:10 PM 65.9°F18.8°C 57.4°F14.1°C 74% 3.5 mph E5.6 kmh E 5.8 mph9.3 kmh 30.01 in1016.3 mb - 0.00 in0.0 mm 0.00 in0.0 mm
08:20 PM 65.6°F18.7°C 57.1°F13.9°C 74% 4.6 mph ENE7.4 kmh ENE 6.9 mph11.1 kmh 30.01 in1016.3 mb - 0.00 in0.0 mm 0.00 in0.0 mm
08:30 PM 65.3°F18.5°C 56.8°F13.8°C 74% 2.3 mph E3.7 kmh E 4.6 mph7.4 kmh 30.02 in1016.6 mb - 0.00 in0.0 mm 0.00 in0.0 mm
08:40 PM 65.0°F18.3°C 56.9°F13.8°C 75% 3.5 mph ESE5.6 kmh ESE 3.5 mph5.6 kmh 30.02 in1016.6 mb - 0.00 in0.0 mm 0.00 in0.0 mm
08:50 PM 64.7°F18.2°C 57.0°F13.9°C 76% 2.3 mph ENE3.7 kmh ENE 4.6 mph7.4 kmh 30.02 in1016.6 mb - 0.00 in0.0 mm 0.00 in0.0 mm
09:00 PM 64.5°F18.1°C 56.8°F13.8°C 76% 3.5 mph E5.6 kmh E 8.1 mph13.0 kmh 30.02 in1016.6 mb - 0.00 in0.0 mm 0.00 in0.0 mm
09:10 PM 64.3°F17.9°C 56.9°F13.8°C 77% 2.3 mph ENE3.7 kmh ENE 3.5 mph5.6 kmh 30.03 in1016.9 mb - 0.00 in0.0 mm 0.00 in0.0 mm
09:20 PM 64.0°F17.8°C 56.7°F13.7°C 77% 2.3 mph E3.7 kmh E 3.5 mph5.6 kmh 30.02 in1016.6 mb - 0.00 in0.0 mm 0.00 in0.0 mm
09:30 PM 63.8°F17.7°C 56.8°F13.8°C 78% 3.5 mph NE5.6 kmh NE 4.6 mph7.4 kmh 30.02 in1016.6 mb - 0.00 in0.0 mm 0.00 in0.0 mm
09:40 PM 63.6°F17.6°C 57.0°F13.9°C 79% 3.5 mph ENE5.6 kmh ENE 6.9 mph11.1 kmh 30.02 in1016.6 mb - 0.00 in0.0 mm 0.00 in0.0 mm
09:50 PM 63.5°F17.5°C 56.8°F13.8°C 79% 3.5 mph E5.6 kmh E 3.5 mph5.6 kmh 30.02 in1016.6 mb - 0.00 in0.0 mm 0.00 in0.0 mm
10:00 PM 63.3°F17.4°C 56.7°F13.7°C 79% 2.3 mph E3.7 kmh E 2.3 mph3.7 kmh 30.02 in1016.6 mb - 0.00 in0.0 mm 0.00 in0.0 mm
10:10 PM 63.1°F17.3°C 56.8°F13.8°C 80% 2.3 mph E3.7 kmh E 3.5 mph5.6 kmh 30.02 in1016.6 mb - 0.00 in0.0 mm 0.00 in0.0 mm
10:20 PM 62.9°F17.2°C 56.6°F13.7°C 80% 1.2 mph E1.9 kmh E 3.5 mph5.6 kmh 30.02 in1016.6 mb - 0.00 in0.0 mm 0.00 in0.0 mm
10:30 PM 62.7°F17.1°C 56.4°F13.6°C 80% Calm Calm -- 30.02 in1016.6 mb - 0.00 in0.0 mm 0.00 in0.0 mm
10:40 PM 62.6°F17.0°C 56.3°F13.5°C 80% Calm Calm -- 30.02 in1016.6 mb - 0.00 in0.0 mm 0.00 in0.0 mm
10:50 PM 62.4°F16.9°C 56.5°F13.6°C 81% Calm Calm -- 30.02 in1016.6 mb - 0.00 in0.0 mm 0.00 in0.0 mm
11:00 PM 62.3°F16.8°C 56.3°F13.5°C 81% Calm Calm -- 30.02 in1016.6 mb - 0.00 in0.0 mm 0.00 in0.0 mm
11:10 PM 62.1°F16.7°C 56.2°F13.4°C 81% Calm Calm -- 30.01 in1016.3 mb - 0.00 in0.0 mm 0.00 in0.0 mm
11:20 PM 61.9°F16.6°C 56.0°F13.3°C 81% Calm Calm -- 30.01 in1016.3 mb - 0.00 in0.0 mm 0.00 in0.0 mm
11:30 PM 61.7°F16.5°C 55.8°F13.2°C 81% Calm Calm -- 30.01 in1016.3 mb - 0.00 in0.0 mm 0.00 in0.0 mm
11:40 PM 61.5°F16.4°C 55.6°F13.1°C 81% Calm Calm -- 30.01 in1016.3 mb - 0.00 in0.0 mm 0.00 in0.0 mm
11:50 PM 61.3°F16.3°C 55.8°F13.2°C 82% Calm Calm -- 30.00 in1015.9 mb - 0.00 in0.0 mm 0.00 in0.0 mm